Time;durP1;ratioP1;P1;durP2;ratioP2;P2;SDS_P1;SDS_P2;PMS_P1;PMS_P2;Temp;Humidity;BMP_temperature;BMP_pressure;BME280_temperature;BME280_humidity;BME280_pressure;Samples;Min_cycle;Max_cycle;Signal;HPM_P1;HPM_P2
2021/05/06 00:02:27;;;;;;;5.38;3.33;;;13.10;56.50;;;;;;4973986;28;20038;-76
2021/05/06 00:07:59;;;;;;;6.78;3.10;;;13.00;56.70;;;;;;4973388;28;20058;-82
2021/05/06 00:32:20;;;;;;;4.05;2.80;;;13.10;56.90;;;;;;4976575;28;20019;-75
2021/05/06 00:34:47;;;;;;;2.63;2.40;;;13.10;56.80;;;;;;4975349;28;20023;-76
2021/05/06 00:37:15;;;;;;;5.88;2.80;;;13.10;56.80;;;;;;4976702;28;20068;-76
2021/05/06 00:39:49;;;;;;;3.65;2.55;;;13.10;56.90;;;;;;4975019;28;20034;-75
2021/05/06 01:06:07;;;;;;;3.78;2.67;;;12.90;57.70;;;;;;4976907;28;20146;-79
2021/05/06 01:08:39;;;;;;;6.47;2.85;;;12.90;57.80;;;;;;4976082;28;20026;-79
2021/05/06 01:13:32;;;;;;;7.35;2.95;;;12.90;58.00;;;;;;4975769;28;20019;-78
2021/05/06 01:43:02;;;;;;;7.45;3.00;;;12.70;59.80;;;;;;4976799;28;20512;-83
2021/05/06 01:48:31;;;;;;;3.13;2.63;;;12.70;60.40;;;;;;4976646;28;20129;-83
2021/05/06 01:59:33;;;;;;;5.18;3.15;;;12.60;61.90;;;;;;4982892;28;20393;-82
2021/05/06 02:01:58;;;;;;;4.25;3.10;;;12.60;62.30;;;;;;4975745;28;20026;-82
2021/05/06 02:04:24;;;;;;;5.13;3.15;;;12.50;62.50;;;;;;4974891;28;20031;-82
2021/05/06 02:06:50;;;;;;;4.00;3.20;;;12.50;62.90;;;;;;4975412;28;20034;-81
2021/05/06 02:09:16;;;;;;;5.53;3.00;;;12.50;63.30;;;;;;4975279;28;20038;-80
2021/05/06 02:11:41;;;;;;;7.47;3.30;;;12.50;63.70;;;;;;4973483;28;20031;-80
2021/05/06 02:14:08;;;;;;;3.53;3.10;;;12.50;64.00;;;;;;4973389;28;20034;-80
2021/05/06 02:16:37;;;;;;;4.25;3.20;;;12.40;64.20;;;;;;4974864;28;20473;-79
2021/05/06 02:19:04;;;;;;;4.35;3.47;;;12.50;64.60;;;;;;4974539;28;20019;-78
2021/05/06 02:21:30;;;;;;;8.80;3.55;;;12.40;64.90;;;;;;4974559;28;20027;-79
2021/05/06 02:23:56;;;;;;;5.78;3.15;;;12.40;65.20;;;;;;4974570;28;20488;-78
2021/05/06 02:26:22;;;;;;;10.70;3.78;;;12.40;65.50;;;;;;4974155;28;20050;-78
2021/05/06 02:28:47;;;;;;;5.30;3.28;;;12.40;65.80;;;;;;4974188;28;20041;-78
2021/05/06 02:31:16;;;;;;;4.35;3.40;;;12.30;65.90;;;;;;4974104;28;20023;-78
2021/05/06 02:33:43;;;;;;;7.70;3.33;;;12.30;66.10;;;;;;4974049;28;20031;-77
2021/05/06 02:36:10;;;;;;;4.70;3.35;;;12.30;66.30;;;;;;4974698;28;20074;-78
2021/05/06 02:38:36;;;;;;;9.38;3.33;;;12.30;66.50;;;;;;4974323;28;20026;-78
2021/05/06 02:41:02;;;;;;;4.35;3.28;;;12.30;66.60;;;;;;4975322;28;20022;-82
2021/05/06 02:43:28;;;;;;;7.80;3.38;;;12.30;66.60;;;;;;4974655;28;20038;-82
2021/05/06 02:45:53;;;;;;;8.45;3.25;;;12.30;66.70;;;;;;4975870;28;20484;-82
2021/05/06 02:48:19;;;;;;;6.53;3.72;;;12.30;66.70;;;;;;4974234;28;20121;-82
2021/05/06 02:51:04;;;;;;;6.45;3.20;;;12.30;66.70;;;;;;4974474;28;20030;-82
2021/05/06 02:53:35;;;;;;;6.25;3.50;;;12.30;66.80;;;;;;4975365;28;20023;-79
2021/05/06 02:56:11;;;;;;;5.78;3.70;;;12.30;66.60;;;;;;4974685;28;20033;-78
2021/05/06 03:04:08;;;;;;;11.57;3.88;;;12.30;66.40;;;;;;4990933;28;20034;-79
2021/05/06 03:06:40;;;;;;;5.13;3.40;;;12.30;66.30;;;;;;4986454;28;20420;-78
2021/05/06 03:09:24;;;;;;;5.07;3.30;;;12.30;66.40;;;;;;4975153;28;20058;-79
2021/05/06 03:22:47;;;;;;;5.63;3.08;;;12.50;65.90;;;;;;4973395;28;20065;-78
2021/05/06 03:25:17;;;;;;;6.50;3.30;;;12.60;65.90;;;;;;4973180;28;20090;-79
2021/05/06 03:28:23;;;;;;;5.93;3.40;;;12.60;65.80;;;;;;4973098;28;20105;-79
2021/05/06 04:16:49;;;;;;;4.10;2.72;;;24.30;45.90;;;;;;4976382;28;20030;-78
2021/05/06 04:37:27;;;;;;;3.03;2.42;;;27.00;39.00;;;;;;4976075;28;20038;-82
2021/05/06 04:40:00;;;;;;;4.63;2.50;;;27.50;38.80;;;;;;4976289;28;20023;-83
2021/05/06 05:03:56;;;;;;;6.82;2.55;;;30.70;34.30;;;;;;4974954;28;20037;-77
2021/05/06 05:06:25;;;;;;;9.00;2.72;;;31.30;33.80;;;;;;4973896;28;20034;-77
2021/05/06 05:08:59;;;;;;;5.22;2.78;;;31.30;33.20;;;;;;4973286;28;20058;-77
2021/05/06 05:11:45;;;;;;;5.78;2.30;;;31.10;32.60;;;;;;4974582;28;20054;-76
2021/05/06 05:24:56;;;;;;;3.20;2.50;;;27.80;34.00;;;;;;4975530;28;20038;-77
2021/05/06 05:27:23;;;;;;;7.10;3.13;;;27.50;34.50;;;;;;4974198;28;20047;-76
2021/05/06 05:29:51;;;;;;;6.05;2.97;;;27.00;34.40;;;;;;4974180;28;20038;-77
2021/05/06 05:32:17;;;;;;;6.18;2.50;;;26.60;35.00;;;;;;4974452;28;20030;-76
2021/05/06 05:35:34;;;;;;;3.35;2.58;;;26.60;35.50;;;;;;4974606;28;20031;-78
2021/05/06 05:37:37;;;;;;;8.68;3.03;;;26.60;35.10;;;;;;4967998;28;20094;-79
2021/05/06 05:56:20;;;;;;;2.65;2.40;;;22.70;39.50;;;;;;4964803;28;20114;-79
2021/05/06 05:58:46;;;;;;;7.05;2.90;;;22.60;39.90;;;;;;4973007;28;20114;-79
2021/05/06 06:01:12;;;;;;;3.58;2.80;;;23.20;40.70;;;;;;4974257;28;20454;-77
2021/05/06 06:03:38;;;;;;;10.05;2.75;;;24.30;40.30;;;;;;4974193;28;20035;-76
2021/05/06 06:06:03;;;;;;;3.60;2.20;;;25.70;39.30;;;;;;4974210;28;20026;-78
2021/05/06 06:08:30;;;;;;;7.45;2.50;;;27.10;38.00;;;;;;4974344;28;20034;-77
2021/05/06 06:10:56;;;;;;;6.70;2.70;;;28.00;36.30;;;;;;4974596;28;20049;-75
2021/05/06 06:13:28;;;;;;;5.22;2.35;;;27.80;34.70;;;;;;4974884;28;20474;-79
2021/05/06 06:21:13;;;;;;;6.38;2.42;;;24.90;35.70;;;;;;4974166;28;20030;-77
2021/05/06 06:23:38;;;;;;;4.43;2.40;;;24.10;36.80;;;;;;4973715;28;20114;-77
2021/05/06 06:26:04;;;;;;;6.53;2.83;;;23.20;37.80;;;;;;4972251;28;20114;-77
2021/05/06 06:28:38;;;;;;;7.95;2.70;;;22.60;38.70;;;;;;4973204;28;20041;-77
2021/05/06 06:31:05;;;;;;;3.67;2.60;;;22.00;39.40;;;;;;4972458;28;20065;-76
2021/05/06 06:33:30;;;;;;;7.45;2.50;;;21.50;40.10;;;;;;4973240;28;20035;-77
2021/05/06 06:35:56;;;;;;;7.57;2.65;;;21.00;40.30;;;;;;4973265;28;20466;-77
2021/05/06 06:38:22;;;;;;;3.55;2.53;;;20.60;40.50;;;;;;4973372;28;20038;-77
2021/05/06 06:40:47;;;;;;;11.18;2.55;;;20.10;41.00;;;;;;4973279;28;20062;-79
2021/05/06 06:43:13;;;;;;;8.27;2.70;;;19.90;41.50;;;;;;4974098;28;20031;-80
2021/05/06 06:45:39;;;;;;;10.73;2.65;;;19.60;41.90;;;;;;4974159;28;20393;-80
2021/05/06 06:48:05;;;;;;;8.30;2.88;;;19.30;42.60;;;;;;4973320;28;20355;-78
2021/05/06 06:50:31;;;;;;;6.95;2.40;;;19.10;43.20;;;;;;4974218;28;20030;-81
2021/05/06 06:52:56;;;;;;;10.07;2.58;;;19.10;43.60;;;;;;4972864;28;20029;-80
2021/05/06 06:55:22;;;;;;;5.80;2.92;;;19.00;43.80;;;;;;4972000;28;20098;-79
2021/05/06 06:57:48;;;;;;;8.80;2.47;;;18.90;44.00;;;;;;4972754;28;20042;-80
2021/05/06 07:00:14;;;;;;;4.38;2.10;;;18.60;44.30;;;;;;4973214;28;20121;-79
2021/05/06 07:02:40;;;;;;;4.05;2.75;;;18.50;44.80;;;;;;4973107;28;20492;-80
2021/05/06 07:05:06;;;;;;;3.60;2.47;;;18.30;45.30;;;;;;4973143;28;20035;-81
2021/05/06 07:07:32;;;;;;;65.70;31.75;;;18.20;45.70;;;;;;4971119;28;20504;-80
2021/05/06 07:09:58;;;;;;;17.95;7.30;;;18.00;46.00;;;;;;4972593;28;20054;-78
2021/05/06 07:12:23;;;;;;;17.25;4.75;;;17.90;46.30;;;;;;4972464;28;20034;-79
2021/05/06 07:14:49;;;;;;;10.63;4.72;;;17.90;46.70;;;;;;4972678;28;20035;-78
2021/05/06 07:17:15;;;;;;;8.07;2.85;;;17.80;47.00;;;;;;4971648;28;20023;-80
2021/05/06 07:19:40;;;;;;;7.55;3.30;;;17.70;47.60;;;;;;4973134;28;20058;-81
2021/05/06 07:22:06;;;;;;;6.00;3.25;;;17.60;48.10;;;;;;4973645;28;20035;-80
2021/05/06 07:24:32;;;;;;;6.47;3.13;;;17.50;48.60;;;;;;4973826;28;20031;-80
2021/05/06 07:26:59;;;;;;;10.95;2.97;;;17.50;49.20;;;;;;4972655;28;20113;-79
2021/05/06 07:29:26;;;;;;;7.07;2.90;;;17.40;49.80;;;;;;4972071;28;20027;-79
2021/05/06 07:31:53;;;;;;;7.47;2.90;;;17.40;50.70;;;;;;4972916;28;20027;-79
2021/05/06 07:34:18;;;;;;;7.10;2.85;;;18.00;52.40;;;;;;4972800;28;20055;-83
2021/05/06 07:36:44;;;;;;;6.10;3.10;;;18.70;52.00;;;;;;4973162;28;20406;-86
2021/05/06 07:39:10;;;;;;;10.73;4.28;;;19.40;51.50;;;;;;4973936;28;20121;-82
2021/05/06 07:41:36;;;;;;;6.00;3.03;;;20.40;51.00;;;;;;4973810;28;20047;-83
2021/05/06 07:44:01;;;;;;;5.22;2.65;;;21.50;50.00;;;;;;4972363;28;20074;-80
2021/05/06 07:46:28;;;;;;;4.07;2.75;;;22.40;48.30;;;;;;4971874;28;20031;-80
2021/05/06 07:48:54;;;;;;;8.15;3.15;;;22.90;47.20;;;;;;4972905;28;20037;-82
2021/05/06 07:51:20;;;;;;;4.78;3.28;;;22.70;45.10;;;;;;4971183;28;20035;-81
2021/05/06 07:53:51;;;;;;;9.35;3.13;;;22.20;45.00;;;;;;4972972;28;20078;-83
2021/05/06 07:56:19;;;;;;;10.03;3.03;;;21.70;45.40;;;;;;4978451;28;20027;-79
2021/05/06 07:58:44;;;;;;;5.45;2.80;;;21.20;46.20;;;;;;4976442;28;20369;-83
2021/05/06 08:01:11;;;;;;;11.50;3.05;;;21.00;47.00;;;;;;4980622;28;20046;-83
2021/05/06 08:03:37;;;;;;;8.57;3.17;;;21.20;47.80;;;;;;4975928;28;20070;-83
2021/05/06 08:06:04;;;;;;;9.07;3.60;;;21.40;47.80;;;;;;4975207;28;20027;-85
2021/05/06 08:08:29;;;;;;;7.53;3.35;;;21.70;47.40;;;;;;4973320;28;20039;-84
2021/05/06 08:10:57;;;;;;;4.63;2.90;;;21.80;47.00;;;;;;4974261;28;20081;-84
2021/05/06 08:13:24;;;;;;;6.50;2.72;;;21.70;46.80;;;;;;4972353;28;20106;-84
2021/05/06 08:15:53;;;;;;;5.53;3.10;;;21.80;46.80;;;;;;4972436;28;20721;-86
2021/05/06 08:18:19;;;;;;;10.07;3.28;;;21.90;46.70;;;;;;4972136;28;20022;-84
2021/05/06 08:20:54;;;;;;;9.85;3.50;;;21.80;46.70;;;;;;4975177;28;20030;-84
2021/05/06 08:23:20;;;;;;;9.07;3.33;;;21.70;47.00;;;;;;4977099;28;20066;-87
2021/05/06 08:25:46;;;;;;;7.43;3.13;;;21.70;47.20;;;;;;4972599;28;20050;-83
2021/05/06 08:28:12;;;;;;;4.63;3.33;;;21.90;47.50;;;;;;4972832;28;20097;-76
2021/05/06 08:30:38;;;;;;;10.73;6.72;;;22.30;47.40;;;;;;4971590;28;20031;-76
2021/05/06 08:33:04;;;;;;;5.70;3.88;;;22.60;46.90;;;;;;4970338;28;20031;-75
2021/05/06 08:35:31;;;;;;;8.88;2.67;;;22.90;46.30;;;;;;4971769;28;20022;-76
2021/05/06 08:37:57;;;;;;;5.30;3.30;;;23.10;46.10;;;;;;4970764;28;20566;-76
2021/05/06 08:40:23;;;;;;;3.95;2.80;;;23.20;45.80;;;;;;4972251;28;20134;-77
2021/05/06 08:42:54;;;;;;;4.90;3.10;;;23.30;45.50;;;;;;4972671;28;20062;-75
2021/05/06 08:45:23;;;;;;;9.13;3.60;;;23.30;45.50;;;;;;4975218;28;20030;-77
2021/05/06 08:47:50;;;;;;;17.45;3.92;;;23.10;45.50;;;;;;4974976;28;20039;-76
2021/05/06 08:50:18;;;;;;;6.13;3.30;;;22.90;45.80;;;;;;4974512;28;20031;-77
2021/05/06 08:52:46;;;;;;;5.93;3.03;;;22.60;46.10;;;;;;4973272;28;20022;-74
2021/05/06 08:55:12;;;;;;;4.78;2.90;;;22.20;46.40;;;;;;4974703;28;20026;-77
2021/05/06 08:57:38;;;;;;;12.98;3.72;;;21.70;46.90;;;;;;4974644;28;20022;-76
2021/05/06 09:00:04;;;;;;;7.68;3.97;;;21.50;47.60;;;;;;4974071;28;20030;-78
2021/05/06 09:02:30;;;;;;;10.00;3.45;;;21.20;48.40;;;;;;4975539;28;20529;-79
2021/05/06 09:04:56;;;;;;;5.75;3.50;;;21.30;49.00;;;;;;4974355;28;20039;-78
2021/05/06 09:07:21;;;;;;;5.82;3.15;;;21.60;49.20;;;;;;4974916;28;20023;-78
2021/05/06 09:09:49;;;;;;;5.68;3.70;;;21.90;49.10;;;;;;4973244;28;20027;-80
2021/05/06 09:12:17;;;;;;;7.85;3.45;;;22.50;48.90;;;;;;4975174;28;20042;-77
2021/05/06 09:14:49;;;;;;;6.45;4.10;;;23.00;48.60;;;;;;4974394;28;20374;-78
2021/05/06 09:17:33;;;;;;;6.32;3.30;;;23.40;47.60;;;;;;4973078;28;20045;-78
2021/05/06 09:20:05;;;;;;;10.90;3.95;;;23.80;46.90;;;;;;4973972;28;20042;-79
2021/05/06 09:22:31;;;;;;;;;;;23.90;46.40;;;;;;4974863;28;20465;-78
2021/05/06 09:25:17;;;;;;;8.98;3.83;;;23.90;46.20;;;;;;4975094;28;19906;-77
2021/05/06 09:27:43;;;;;;;7.75;3.63;;;23.80;46.00;;;;;;4972155;28;20054;-78
2021/05/06 09:30:12;;;;;;;9.02;3.40;;;23.50;46.10;;;;;;4974468;28;20470;-77
2021/05/06 09:32:38;;;;;;;8.20;3.95;;;23.20;46.30;;;;;;4974272;28;20027;-77
2021/05/06 09:35:15;;;;;;;9.43;3.92;;;22.80;46.80;;;;;;4973098;28;20448;-76
2021/05/06 09:37:43;;;;;;;10.05;4.00;;;22.30;47.40;;;;;;4974733;28;20045;-77
2021/05/06 09:40:10;;;;;;;7.97;3.58;;;22.00;48.20;;;;;;4974116;28;20106;-76
2021/05/06 09:42:40;;;;;;;10.40;5.18;;;21.60;48.90;;;;;;4974621;28;20034;-76
2021/05/06 09:45:09;;;;;;;5.07;3.90;;;21.30;49.90;;;;;;4974784;28;20042;-77
2021/05/06 09:47:35;;;;;;;6.28;4.20;;;20.90;50.40;;;;;;4974631;28;20022;-77
2021/05/06 09:50:01;;;;;;;6.05;3.70;;;20.60;51.20;;;;;;4974530;28;20033;-78
2021/05/06 09:52:26;;;;;;;8.90;4.43;;;20.30;52.20;;;;;;4974264;28;20031;-77
2021/05/06 09:54:54;;;;;;;8.82;4.30;;;20.10;53.30;;;;;;4974570;28;20031;-75
2021/05/06 09:57:35;;;;;;;6.85;4.50;;;19.80;54.30;;;;;;4974594;28;20130;-76
2021/05/06 10:00:18;;;;;;;7.53;4.63;;;19.60;55.20;;;;;;4974314;28;20026;-76
2021/05/06 10:02:45;;;;;;;14.07;5.40;;;19.40;56.10;;;;;;4973006;28;20122;-76
2021/05/06 10:05:17;;;;;;;9.85;4.60;;;19.20;56.60;;;;;;4974449;28;20041;-76
2021/05/06 10:07:56;;;;;;;6.43;4.72;;;19.00;57.40;;;;;;4973848;28;20018;-75
2021/05/06 10:10:25;;;;;;;7.88;4.05;;;18.80;57.90;;;;;;4972231;28;20474;-78
2021/05/06 10:12:51;;;;;;;6.50;4.10;;;18.70;58.60;;;;;;4971913;28;20031;-76
2021/05/06 10:15:18;;;;;;;8.00;4.22;;;18.50;59.30;;;;;;4972350;28;20082;-75
2021/05/06 10:17:44;;;;;;;6.57;4.22;;;18.30;60.00;;;;;;4973824;28;20019;-76
2021/05/06 10:20:11;;;;;;;7.55;4.00;;;18.20;60.60;;;;;;4972720;28;20031;-76
2021/05/06 10:22:38;;;;;;;6.03;4.20;;;18.10;61.00;;;;;;4973912;28;20381;-76
2021/05/06 10:25:07;;;;;;;5.97;4.35;;;18.10;61.30;;;;;;4973700;28;20105;-74
2021/05/06 10:27:33;;;;;;;9.40;4.78;;;18.10;61.80;;;;;;4972678;28;20090;-74
2021/05/06 10:30:03;;;;;;;8.75;4.38;;;18.20;62.00;;;;;;4972617;28;20026;-74
2021/05/06 10:32:31;;;;;;;9.02;4.35;;;18.30;61.70;;;;;;4973615;28;20056;-75
2021/05/06 10:35:09;;;;;;;9.20;4.60;;;18.40;61.20;;;;;;4975578;28;20090;-74
2021/05/06 10:37:37;;;;;;;7.20;4.13;;;18.40;61.00;;;;;;4974177;28;20803;-74
2021/05/06 10:40:24;;;;;;;14.27;6.45;;;18.50;60.80;;;;;;4971822;28;20457;-75
2021/05/06 10:42:51;;;;;;;12.20;4.43;;;18.40;60.80;;;;;;4972776;28;20069;-73
2021/05/06 10:45:23;;;;;;;13.43;4.75;;;18.40;60.90;;;;;;4971068;28;20031;-75
2021/05/06 10:47:55;;;;;;;10.98;5.40;;;18.40;61.10;;;;;;4971089;28;20105;-76
2021/05/06 10:50:36;;;;;;;9.60;4.88;;;18.30;61.00;;;;;;4972425;28;20501;-75
2021/05/06 10:53:04;;;;;;;7.28;4.40;;;18.20;61.10;;;;;;4972391;28;20358;-74
2021/05/06 10:55:57;;;;;;;8.90;4.90;;;18.10;61.30;;;;;;4971710;28;20065;-73
2021/05/06 10:58:26;;;;;;;7.07;4.88;;;18.00;61.80;;;;;;4972458;28;20061;-74
2021/05/06 11:01:04;;;;;;;12.40;5.00;;;17.90;62.10;;;;;;4972632;28;20469;-74
2021/05/06 11:03:31;;;;;;;8.98;5.30;;;17.80;62.70;;;;;;4972999;28;20726;-75
2021/05/06 11:05:58;;;;;;;8.48;5.20;;;17.80;63.40;;;;;;4971487;28;20037;-74
2021/05/06 11:08:25;;;;;;;11.20;6.28;;;17.80;63.90;;;;;;4972566;28;20090;-76
2021/05/06 11:10:50;;;;;;;10.40;6.93;;;17.80;64.40;;;;;;4972573;28;20038;-74
2021/05/06 11:13:18;;;;;;;12.13;6.72;;;17.80;65.00;;;;;;4973017;28;20030;-81
2021/05/06 11:15:44;;;;;;;10.05;6.50;;;17.80;65.60;;;;;;4972596;28;20083;-81
2021/05/06 11:18:12;;;;;;;14.38;7.80;;;17.90;66.00;;;;;;4973089;28;20035;-81
2021/05/06 11:20:42;;;;;;;21.50;13.27;;;18.00;66.50;;;;;;4973308;28;20720;-84
2021/05/06 11:23:20;;;;;;;20.63;11.65;;;18.10;66.50;;;;;;4971865;28;20384;-82
2021/05/06 11:25:51;;;;;;;17.23;10.52;;;18.20;67.00;;;;;;4972503;28;20173;-82
2021/05/06 11:28:19;;;;;;;14.23;8.60;;;18.30;66.90;;;;;;4972976;28;20050;-82
2021/05/06 11:30:49;;;;;;;15.10;9.40;;;18.40;66.80;;;;;;4973024;28;20121;-82
2021/05/06 11:33:17;;;;;;;15.13;9.27;;;18.40;67.20;;;;;;4975374;28;20944;-81
2021/05/06 11:35:56;;;;;;;9.65;6.40;;;18.50;66.70;;;;;;4974056;28;20460;-80
2021/05/06 11:38:41;;;;;;;9.02;5.93;;;18.40;66.40;;;;;;4973895;28;20023;-82
2021/05/06 11:41:15;;;;;;;10.73;5.97;;;18.40;65.70;;;;;;4973131;28;20058;-82
2021/05/06 11:43:47;;;;;;;9.65;5.68;;;18.30;65.60;;;;;;4973204;28;20050;-81
2021/05/06 11:46:18;;;;;;;11.05;7.03;;;18.30;65.70;;;;;;4973609;28;20381;-81
2021/05/06 11:48:46;;;;;;;13.75;5.55;;;18.20;65.50;;;;;;4971827;28;20498;-82
2021/05/06 11:51:32;;;;;;;11.18;5.85;;;18.10;65.00;;;;;;4971370;28;20035;-82
2021/05/06 11:57:00;;;;;;;9.10;5.30;;;18.00;65.60;;;;;;4969570;28;20038;-81
2021/05/06 11:59:28;;;;;;;14.27;5.65;;;18.10;65.40;;;;;;4971376;28;20058;-80
2021/05/06 12:01:57;;;;;;;10.23;5.55;;;18.10;65.20;;;;;;4972589;28;20101;-81
2021/05/06 12:04:34;;;;;;;17.42;6.72;;;18.10;65.10;;;;;;4972829;28;20055;-83
2021/05/06 12:07:16;;;;;;;7.50;6.18;;;18.20;65.00;;;;;;4975620;28;20481;-82
2021/05/06 12:09:42;;;;;;;22.48;7.25;;;18.30;64.30;;;;;;4973262;28;20094;-82
2021/05/06 12:12:09;;;;;;;9.95;6.45;;;18.30;64.00;;;;;;4974589;28;20039;-82
2021/05/06 12:14:36;;;;;;;18.60;7.00;;;18.30;64.20;;;;;;4973409;28;20074;-81
2021/05/06 12:17:02;;;;;;;17.63;6.70;;;18.30;63.20;;;;;;4972458;28;20030;-82
2021/05/06 12:19:29;;;;;;;12.68;5.95;;;18.20;62.70;;;;;;4976494;28;20466;-80
2021/05/06 12:21:57;;;;;;;10.05;5.57;;;18.20;62.30;;;;;;4976295;28;20027;-78
2021/05/06 12:24:33;;;;;;;15.38;6.65;;;18.10;61.80;;;;;;4976170;28;20019;-79
2021/05/06 12:27:14;;;;;;;12.40;6.82;;;18.10;61.80;;;;;;4978063;28;20039;-78
2021/05/06 12:29:40;;;;;;;9.38;6.28;;;18.10;61.90;;;;;;4974988;28;20026;-75
2021/05/06 12:32:06;;;;;;;13.95;6.90;;;18.10;62.50;;;;;;4975887;28;20078;-75
2021/05/06 12:34:35;;;;;;;9.18;6.68;;;18.20;63.00;;;;;;4975656;28;20029;-76
2021/05/06 12:37:02;;;;;;;8.50;5.95;;;18.30;63.40;;;;;;4975648;28;20413;-76
2021/05/06 12:39:30;;;;;;;9.23;7.00;;;18.40;63.50;;;;;;4975905;28;20034;-76
2021/05/06 12:41:59;;;;;;;12.35;6.65;;;18.50;63.60;;;;;;4974199;28;20422;-73
2021/05/06 12:44:51;;;;;;;11.00;6.65;;;18.50;63.30;;;;;;4975542;28;20094;-76
2021/05/06 12:47:28;;;;;;;9.38;6.22;;;18.50;62.90;;;;;;4975523;28;20019;-75
2021/05/06 12:50:09;;;;;;;10.88;6.55;;;18.40;62.50;;;;;;4975714;28;20035;-75
2021/05/06 12:52:39;;;;;;;11.17;6.80;;;18.30;62.80;;;;;;4975288;28;20416;-75
2021/05/06 12:55:24;;;;;;;9.10;7.13;;;18.20;63.20;;;;;;4972927;28;20465;-75
2021/05/06 12:58:08;;;;;;;10.07;7.13;;;18.10;63.30;;;;;;4974833;28;20417;-75
2021/05/06 13:00:37;;;;;;;10.30;6.68;;;18.00;63.50;;;;;;4969410;28;20018;-75
2021/05/06 13:03:06;;;;;;;11.77;8.23;;;18.00;64.00;;;;;;4974245;28;20408;-75
2021/05/06 13:05:34;;;;;;;9.57;6.95;;;18.00;64.40;;;;;;4973247;28;20385;-76
2021/05/06 13:08:00;;;;;;;9.93;6.95;;;17.90;64.20;;;;;;4974124;28;20084;-78
2021/05/06 13:10:43;;;;;;;24.25;14.48;;;17.80;64.10;;;;;;4972661;28;20062;-76
2021/05/06 13:13:12;;;;;;;12.15;8.48;;;17.70;64.30;;;;;;4973947;28;20031;-75
2021/05/06 13:15:53;;;;;;;37.38;22.83;;;17.70;64.20;;;;;;4974423;28;20026;-75
2021/05/06 13:18:20;;;;;;;31.65;19.05;;;17.60;64.40;;;;;;4974214;28;20050;-75
2021/05/06 13:20:47;;;;;;;13.43;9.35;;;17.60;64.30;;;;;;4972947;28;20038;-82
2021/05/06 13:23:47;;;;;;;37.72;22.65;;;17.60;64.80;;;;;;4974381;28;20120;-80
2021/05/06 13:26:14;;;;;;;110.80;67.63;;;17.50;64.70;;;;;;4931003;28;20121;-82
2021/05/06 13:28:42;;;;;;;75.10;46.97;;;17.50;65.40;;;;;;4974366;28;20045;-82
2021/05/06 13:31:20;;;;;;;64.80;38.53;;;17.50;64.80;;;;;;4980498;28;20061;-84
2021/05/06 13:34:07;;;;;;;37.55;19.38;;;17.50;64.80;;;;;;5009592;28;20548;-83
2021/05/06 13:36:33;;;;;;;24.20;12.68;;;17.50;64.60;;;;;;5007695;28;20058;-81
2021/05/06 13:39:17;;;;;;;112.32;66.32;;;17.50;64.60;;;;;;4974771;28;20057;-81
2021/05/06 13:41:46;;;;;;;16.48;9.38;;;17.50;64.80;;;;;;4974475;28;20023;-80
2021/05/06 13:44:17;;;;;;;52.75;29.90;;;17.50;64.60;;;;;;4974612;28;20030;-81
2021/05/06 13:46:54;;;;;;;42.50;22.42;;;17.40;64.40;;;;;;4974572;28;20035;-82
2021/05/06 13:49:25;;;;;;;24.95;9.55;;;17.40;64.30;;;;;;4974240;28;20073;-81
2021/05/06 13:51:52;;;;;;;29.25;14.98;;;17.40;65.00;;;;;;4974650;28;20039;-80
2021/05/06 13:54:19;;;;;;;50.30;25.65;;;17.40;64.50;;;;;;4974027;28;20054;-81
2021/05/06 13:56:45;;;;;;;82.38;45.95;;;17.40;64.70;;;;;;4973924;28;20026;-82
2021/05/06 13:59:12;;;;;;;78.75;43.70;;;17.40;64.70;;;;;;4974501;28;20089;-83
2021/05/06 14:01:38;;;;;;;32.15;12.07;;;17.50;64.60;;;;;;4974188;28;20496;-82
2021/05/06 14:04:05;;;;;;;20.20;8.95;;;17.50;64.30;;;;;;4974458;28;20478;-81
2021/05/06 14:06:31;;;;;;;11.40;7.30;;;17.50;64.10;;;;;;4978822;28;20023;-81
2021/05/06 14:08:57;;;;;;;166.27;97.30;;;17.50;63.70;;;;;;4976381;28;20168;-82
2021/05/06 14:11:26;;;;;;;37.88;22.13;;;17.50;63.50;;;;;;4976075;28;20102;-80
2021/05/06 14:13:54;;;;;;;17.30;8.68;;;17.40;63.20;;;;;;4974523;28;20030;-81
2021/05/06 14:16:20;;;;;;;18.35;10.07;;;17.50;63.30;;;;;;4977544;28;20026;-82
2021/05/06 14:18:46;;;;;;;10.40;6.30;;;17.50;63.30;;;;;;4974254;28;20381;-81
2021/05/06 14:21:14;;;;;;;22.17;9.90;;;17.60;63.10;;;;;;4974311;28;20033;-82
2021/05/06 14:23:44;;;;;;;18.73;7.57;;;17.70;63.00;;;;;;4974797;28;20473;-82
2021/05/06 14:26:11;;;;;;;21.15;6.10;;;17.90;62.90;;;;;;4973029;28;20030;-82
2021/05/06 14:28:37;;;;;;;14.60;5.07;;;18.10;62.30;;;;;;4974216;28;20109;-81
2021/05/06 14:31:07;;;;;;;12.18;5.97;;;18.20;61.70;;;;;;4976752;28;20086;-80
2021/05/06 14:33:35;;;;;;;11.02;5.28;;;18.40;61.20;;;;;;4975422;28;20436;-81
2021/05/06 14:36:06;;;;;;;12.77;4.75;;;18.60;60.60;;;;;;4974874;28;20053;-82
2021/05/06 14:38:32;;;;;;;9.85;5.50;;;18.70;60.20;;;;;;4973663;28;20069;-82
2021/05/06 14:40:57;;;;;;;10.05;4.97;;;18.80;59.60;;;;;;4971734;28;20018;-82
2021/05/06 14:43:23;;;;;;;28.02;17.65;;;19.00;59.30;;;;;;4976766;28;20046;-81
2021/05/06 14:45:49;;;;;;;98.40;58.10;;;19.20;59.00;;;;;;4975298;28;20074;-82
2021/05/06 14:48:15;;;;;;;62.75;39.58;;;19.30;58.50;;;;;;4975052;28;20038;-81
2021/05/06 14:50:42;;;;;;;47.83;28.40;;;19.50;57.80;;;;;;4973542;28;20458;-81
2021/05/06 14:53:07;;;;;;;28.02;13.88;;;19.60;57.00;;;;;;4973910;28;20030;-82
2021/05/06 14:55:33;;;;;;;15.18;8.27;;;19.70;56.20;;;;;;4973813;28;20027;-83
2021/05/06 14:57:59;;;;;;;8.15;4.15;;;19.70;55.20;;;;;;4983193;28;20423;-80
2021/05/06 15:00:25;;;;;;;8.88;4.97;;;19.70;54.30;;;;;;4973513;28;20089;-83
2021/05/06 15:02:51;;;;;;;10.07;3.95;;;19.60;53.70;;;;;;4973679;28;20039;-79
2021/05/06 15:05:19;;;;;;;12.55;5.63;;;19.40;53.30;;;;;;4973597;28;20023;-76
2021/05/06 15:07:46;;;;;;;39.05;20.38;;;19.30;53.30;;;;;;4973615;28;20026;-78
2021/05/06 15:10:12;;;;;;;32.85;17.50;;;19.20;53.40;;;;;;4972774;28;20112;-83
2021/05/06 15:12:41;;;;;;;89.63;55.55;;;19.10;53.30;;;;;;4971881;28;20146;-83
2021/05/06 15:15:11;;;;;;;54.08;33.45;;;18.90;53.20;;;;;;4973173;28;20053;-84
2021/05/06 15:17:37;;;;;;;38.10;20.45;;;18.80;53.20;;;;;;4973342;28;20023;-83
2021/05/06 15:20:05;;;;;;;16.25;7.10;;;18.70;53.20;;;;;;4978577;28;20410;-80
2021/05/06 15:22:30;;;;;;;19.52;6.28;;;18.60;53.00;;;;;;4975578;28;20031;-83
2021/05/06 15:24:56;;;;;;;10.70;5.10;;;18.50;52.90;;;;;;4973592;28;20031;-81
2021/05/06 15:27:22;;;;;;;12.00;3.60;;;18.40;52.70;;;;;;4973193;28;20046;-82
2021/05/06 15:29:48;;;;;;;10.13;4.28;;;18.30;52.50;;;;;;4972846;28;20426;-82
2021/05/06 15:32:17;;;;;;;78.65;42.47;;;18.20;52.50;;;;;;4971811;28;20038;-85
2021/05/06 15:34:42;;;;;;;63.20;35.25;;;18.10;52.40;;;;;;4973122;28;20022;-82
2021/05/06 15:37:08;;;;;;;58.40;34.08;;;18.00;52.50;;;;;;4972469;28;20355;-82
2021/05/06 15:39:38;;;;;;;50.72;26.65;;;17.90;52.60;;;;;;4972511;28;20465;-82
2021/05/06 15:42:04;;;;;;;38.22;17.60;;;17.80;52.60;;;;;;4972673;28;20030;-82
2021/05/06 15:44:31;;;;;;;26.23;11.20;;;17.70;52.80;;;;;;4973387;28;20027;-82
2021/05/06 15:47:00;;;;;;;21.73;7.88;;;17.70;53.00;;;;;;4972850;28;20027;-82
2021/05/06 15:49:40;;;;;;;10.70;6.15;;;17.70;53.10;;;;;;4972626;28;20351;-81
2021/05/06 15:52:10;;;;;;;132.63;83.82;;;17.60;53.10;;;;;;4975582;28;20089;-82
2021/05/06 15:54:38;;;;;;;31.73;15.32;;;17.60;53.20;;;;;;4987044;28;20023;-79
2021/05/06 15:57:05;;;;;;;35.17;20.02;;;17.50;53.10;;;;;;4978469;28;20110;-82
2021/05/06 15:59:31;;;;;;;36.85;21.77;;;17.40;53.10;;;;;;4977910;28;20097;-82
2021/05/06 16:01:57;;;;;;;12.90;3.67;;;17.40;53.10;;;;;;4975913;28;20359;-82
2021/05/06 16:04:28;;;;;;;10.98;4.60;;;17.30;52.60;;;;;;4977577;28;20053;-81
2021/05/06 16:06:54;;;;;;;9.23;4.25;;;17.20;52.20;;;;;;4976908;28;20022;-83
2021/05/06 16:09:20;;;;;;;16.42;8.93;;;17.20;52.10;;;;;;4976366;28;20042;-82
2021/05/06 16:11:46;;;;;;;11.77;5.65;;;17.10;52.60;;;;;;4977191;28;20467;-81
2021/05/06 16:14:21;;;;;;;11.52;4.90;;;17.00;53.00;;;;;;4978546;28;20125;-82
2021/05/06 16:16:47;;;;;;;7.93;4.63;;;16.90;53.30;;;;;;4977230;28;20019;-82
2021/05/06 16:19:15;;;;;;;11.60;4.82;;;16.80;53.50;;;;;;4976792;28;20023;-83
2021/05/06 16:21:40;;;;;;;9.57;3.97;;;16.80;53.70;;;;;;4976576;28;20026;-83
2021/05/06 16:24:07;;;;;;;8.52;4.00;;;16.70;53.80;;;;;;4977117;28;20089;-84
2021/05/06 16:26:34;;;;;;;17.85;6.57;;;16.60;54.00;;;;;;4976472;28;20054;-81
2021/05/06 16:29:00;;;;;;;11.02;5.22;;;16.60;54.20;;;;;;4977816;28;20497;-83
2021/05/06 16:31:26;;;;;;;11.25;5.03;;;16.50;54.30;;;;;;4981648;28;20034;-83
2021/05/06 16:33:57;;;;;;;13.73;5.13;;;16.50;54.60;;;;;;4975251;28;20031;-79
2021/05/06 16:36:36;;;;;;;14.80;4.85;;;16.40;54.60;;;;;;4975911;28;20524;-81
2021/05/06 16:46:52;;;;;;;11.25;6.07;;;16.10;54.60;;;;;;4975712;28;20037;-78